createdAt,value
2022-11-20T00:01:29.886Z,22.02
2022-11-20T00:03:58.873Z,28.35
2022-11-20T00:06:27.237Z,21.20
2022-11-20T00:08:56.760Z,25.23
2022-11-20T00:11:25.558Z,23.08
2022-11-20T00:13:54.695Z,23.55
2022-11-20T00:16:25.040Z,26.55
2022-11-20T00:18:52.508Z,27.02
2022-11-20T00:21:24.101Z,23.13
2022-11-20T00:23:53.146Z,26.70
2022-11-20T00:26:22.809Z,10.52
2022-11-20T00:28:57.762Z,21.10
2022-11-20T00:31:24.666Z,25.95
2022-11-20T00:33:51.678Z,12.77
2022-11-20T00:36:20.534Z,26.02
2022-11-20T00:38:47.415Z,24.23
2022-11-20T00:41:16.522Z,17.30
2022-11-20T00:43:43.845Z,19.42
2022-11-20T00:46:16.409Z,18.67
2022-11-20T00:48:43.435Z,19.95
2022-11-20T00:51:12.279Z,20.15
2022-11-20T00:53:38.836Z,22.13
2022-11-20T00:56:08.241Z,19.60
2022-11-20T00:58:37.922Z,23.10
2022-11-20T01:01:05.709Z,25.10
2022-11-20T01:03:37.348Z,21.17
2022-11-20T01:06:06.415Z,23.63
2022-11-20T01:08:34.590Z,26.55
2022-11-20T01:11:21.557Z,17.42
2022-11-20T01:13:49.913Z,21.08
2022-11-20T01:16:19.517Z,19.65
2022-11-20T01:18:48.094Z,22.00
2022-11-20T01:21:23.741Z,16.35
2022-11-20T01:23:51.482Z,18.05
2022-11-20T01:26:20.600Z,23.80
2022-11-20T01:28:47.141Z,22.38
2022-11-20T01:31:22.140Z,20.55
2022-11-20T01:33:51.059Z,19.65
2022-11-20T01:36:19.434Z,18.23
2022-11-20T01:38:46.113Z,22.17
2022-11-20T01:41:36.721Z,9.70
2022-11-20T01:44:04.664Z,22.35
2022-11-20T01:46:34.468Z,14.65
2022-11-20T01:49:17.453Z,4.63
2022-11-20T01:51:53.736Z,11.38
2022-11-20T01:54:26.680Z,18.10
2022-11-20T01:56:57.789Z,14.52
2022-11-20T01:59:26.986Z,17.25
2022-11-20T02:01:54.261Z,18.20
2022-11-20T02:04:21.932Z,15.65
2022-11-20T02:06:59.017Z,20.95
2022-11-20T02:09:25.667Z,13.63
2022-11-20T02:11:53.156Z,14.32
2022-11-20T02:14:20.394Z,16.35
2022-11-20T02:16:48.911Z,17.27
2022-11-20T02:19:30.594Z,13.65
2022-11-20T02:22:14.059Z,17.45
2022-11-20T02:24:43.018Z,17.17
2022-11-20T02:27:13.165Z,11.75
2022-11-20T02:29:48.268Z,8.80
2022-11-20T02:32:34.128Z,15.07
2022-11-20T02:35:10.953Z,12.68
2022-11-20T02:37:41.291Z,13.93
2022-11-20T02:40:08.543Z,16.88
2022-11-20T02:42:35.673Z,17.02
2022-11-20T02:45:02.173Z,16.90
2022-11-20T02:47:28.684Z,16.88
2022-11-20T02:49:55.161Z,20.10
2022-11-20T02:52:21.637Z,18.83
2022-11-20T02:54:48.157Z,17.10
2022-11-20T02:57:14.683Z,18.33
2022-11-20T02:59:41.201Z,21.75
2022-11-20T03:02:07.766Z,15.35
2022-11-20T03:04:34.286Z,16.95
2022-11-20T03:07:00.957Z,14.05
2022-11-20T03:09:27.526Z,16.90
2022-11-20T03:11:54.192Z,16.00
2022-11-20T03:14:20.740Z,16.45
2022-11-20T03:16:47.208Z,17.25
2022-11-20T03:19:14.509Z,19.27
2022-11-20T03:21:41.185Z,16.40
2022-11-20T03:24:07.930Z,20.02
2022-11-20T03:26:34.640Z,17.80
2022-11-20T03:29:03.616Z,16.90
2022-11-20T03:31:33.413Z,18.73
2022-11-20T03:34:00.866Z,16.13
2022-11-20T03:36:28.344Z,18.67
2022-11-20T03:38:56.205Z,15.35
2022-11-20T03:41:25.717Z,12.25
2022-11-20T03:44:01.799Z,12.25
2022-11-20T03:48:55.839Z,7.40
2022-11-20T03:51:23.397Z,13.43
2022-11-20T03:53:51.827Z,15.18
2022-11-20T03:56:21.203Z,17.25
2022-11-20T03:58:47.715Z,15.43
2022-11-20T04:01:19.513Z,14.32
2022-11-20T04:03:46.856Z,11.05
2022-11-20T04:06:16.448Z,13.65
2022-11-20T04:08:43.303Z,18.17
2022-11-20T04:11:10.748Z,15.93
2022-11-20T04:13:37.676Z,16.52
2022-11-20T04:16:05.184Z,16.42
2022-11-20T04:18:31.753Z,19.10
2022-11-20T04:20:58.857Z,17.98
2022-11-20T04:23:28.674Z,12.15
2022-11-20T04:25:55.735Z,10.25
2022-11-20T04:28:22.206Z,6.32
2022-11-20T04:30:48.717Z,12.23
2022-11-20T04:33:15.221Z,11.45
2022-11-20T04:35:41.734Z,6.90
2022-11-20T04:38:08.239Z,7.60
2022-11-20T04:40:34.715Z,9.00
2022-11-20T04:43:01.225Z,17.17
2022-11-20T04:45:27.688Z,16.30
2022-11-20T04:47:54.185Z,13.32
2022-11-20T04:50:20.727Z,14.90
2022-11-20T04:52:47.197Z,17.90
2022-11-20T04:55:13.678Z,13.02
2022-11-20T04:57:40.391Z,16.63
2022-11-20T05:00:07.941Z,15.45
2022-11-20T05:02:34.486Z,16.55
2022-11-20T05:05:00.955Z,16.38
2022-11-20T05:07:27.491Z,20.38
2022-11-20T05:09:54.038Z,13.55
2022-11-20T05:12:20.583Z,14.18
2022-11-20T05:14:47.057Z,11.32
2022-11-20T05:17:13.775Z,7.60
2022-11-20T05:19:40.267Z,12.85
2022-11-20T05:22:06.738Z,10.90
2022-11-20T05:24:33.214Z,7.68
2022-11-20T05:26:59.714Z,6.38
2022-11-20T05:29:26.174Z,14.15
2022-11-20T05:31:52.655Z,12.00
2022-11-20T05:34:19.130Z,7.18
2022-11-20T05:36:45.596Z,1.95
2022-11-20T05:39:12.119Z,9.38
2022-11-20T05:41:38.611Z,11.43
2022-11-20T05:44:05.301Z,10.00
2022-11-20T05:46:31.859Z,11.90
2022-11-20T05:48:59.251Z,13.20
2022-11-20T05:51:26.498Z,5.13
2022-11-20T05:53:53.013Z,9.02
2022-11-20T05:56:21.574Z,8.25
2022-11-20T05:58:49.426Z,7.38
2022-11-20T06:01:26.486Z,9.70
2022-11-20T06:03:54.746Z,7.60
2022-11-20T06:06:21.852Z,7.95
2022-11-20T06:08:48.859Z,6.55
2022-11-20T06:11:16.509Z,3.72
2022-11-20T06:13:43.561Z,13.65
2022-11-20T06:16:12.052Z,9.95
2022-11-20T06:18:39.189Z,6.93
2022-11-20T06:21:07.250Z,4.45
2022-11-20T06:23:35.258Z,4.57
2022-11-20T06:26:03.798Z,11.05
2022-11-20T06:28:30.393Z,11.45
2022-11-20T06:30:56.880Z,8.38
2022-11-20T06:33:23.365Z,9.63
2022-11-20T06:35:49.834Z,13.90
2022-11-20T06:38:16.287Z,8.15
2022-11-20T06:40:43.623Z,8.90
2022-11-20T06:43:13.106Z,12.68
2022-11-20T06:45:39.607Z,11.85
2022-11-20T06:48:06.231Z,7.45
2022-11-20T06:50:32.754Z,3.75
2022-11-20T06:53:03.398Z,14.35
2022-11-20T06:55:30.219Z,4.45
2022-11-20T06:57:56.686Z,11.50
2022-11-20T07:00:23.186Z,11.43
2022-11-20T07:02:49.715Z,11.15
2022-11-20T07:05:16.499Z,13.93
2022-11-20T07:07:43.286Z,13.73
2022-11-20T07:10:10.820Z,17.10
2022-11-20T07:12:37.317Z,15.45
2022-11-20T07:15:04.129Z,11.13
2022-11-20T07:17:30.671Z,15.90
2022-11-20T07:19:57.189Z,11.02
2022-11-20T07:22:26.246Z,14.48
2022-11-20T07:24:52.721Z,11.15
2022-11-20T07:27:19.212Z,4.38
2022-11-20T07:29:45.712Z,6.68
2022-11-20T07:32:12.219Z,9.05
2022-11-20T07:34:40.675Z,10.68
2022-11-20T07:37:10.321Z,9.75
2022-11-20T07:42:03.868Z,12.32
2022-11-20T07:44:32.677Z,13.13
2022-11-20T07:46:59.183Z,11.07
2022-11-20T07:49:25.627Z,11.65
2022-11-20T07:51:58.273Z,12.45
2022-11-20T07:54:27.369Z,19.33
2022-11-20T07:56:54.958Z,14.70
2022-11-20T07:59:21.593Z,12.45
2022-11-20T08:01:48.355Z,14.93
2022-11-20T08:04:17.085Z,14.55
2022-11-20T08:06:43.797Z,13.23
2022-11-20T08:09:10.646Z,13.93
2022-11-20T08:11:55.586Z,11.80
2022-11-20T08:14:22.033Z,13.20
2022-11-20T08:16:50.424Z,12.15
2022-11-20T08:19:18.991Z,14.70
2022-11-20T08:21:45.851Z,11.60
2022-11-20T08:24:12.681Z,12.63
2022-11-20T08:26:40.471Z,12.60
2022-11-20T08:29:06.987Z,13.25
2022-11-20T08:31:33.499Z,14.02
2022-11-20T08:34:00.076Z,13.23
2022-11-20T08:36:26.796Z,14.48
2022-11-20T08:38:55.537Z,6.70
2022-11-20T08:41:26.346Z,14.52
2022-11-20T08:44:00.924Z,15.02
2022-11-20T08:46:31.763Z,13.32
2022-11-20T08:48:58.267Z,17.25
2022-11-20T08:51:24.759Z,20.88
2022-11-20T08:53:51.298Z,16.80
2022-11-20T08:56:18.686Z,25.17
2022-11-20T08:59:16.120Z,20.67
2022-11-20T09:01:32.062Z,15.95
2022-11-20T09:04:00.452Z,19.80
2022-11-20T09:06:27.171Z,21.50
2022-11-20T09:08:54.771Z,21.42
2022-11-20T09:11:21.942Z,21.05
2022-11-20T09:13:48.420Z,21.40
2022-11-20T09:16:15.137Z,22.02
2022-11-20T09:18:41.654Z,20.23
2022-11-20T09:21:13.789Z,24.55
2022-11-20T09:23:40.736Z,24.30
2022-11-20T09:26:11.511Z,16.23
2022-11-20T09:28:39.536Z,22.83
2022-11-20T09:31:07.721Z,25.55
2022-11-20T09:33:34.381Z,20.35
2022-11-20T09:36:00.928Z,15.27
2022-11-20T09:38:27.512Z,22.63
2022-11-20T09:41:05.948Z,20.92
2022-11-20T09:43:47.630Z,22.27
2022-11-20T09:46:28.253Z,20.40
2022-11-20T09:49:21.280Z,26.02
2022-11-20T09:51:51.112Z,19.60
2022-11-20T09:54:23.675Z,23.75
2022-11-20T09:56:56.085Z,18.38
2022-11-20T09:59:45.330Z,19.30
2022-11-20T10:02:29.637Z,21.00
2022-11-20T10:05:19.294Z,19.08
2022-11-20T10:07:56.637Z,18.00
2022-11-20T10:10:31.946Z,22.88
2022-11-20T10:13:10.663Z,22.02
2022-11-20T10:16:47.580Z,18.95
2022-11-20T10:19:32.070Z,20.77
2022-11-20T10:22:15.568Z,19.88
2022-11-20T10:24:47.466Z,26.40
2022-11-20T10:27:24.296Z,20.83
2022-11-20T10:30:12.552Z,19.08
2022-11-20T10:35:21.975Z,17.42
2022-11-20T10:37:56.093Z,16.23
2022-11-20T10:40:47.181Z,17.08
2022-11-20T10:43:27.513Z,19.00
2022-11-20T10:46:03.215Z,18.70
2022-11-20T10:48:32.574Z,16.35
2022-11-20T10:51:25.257Z,17.55
2022-11-20T10:53:59.694Z,16.98
2022-11-20T10:56:30.645Z,20.00
2022-11-20T10:59:15.333Z,17.35
2022-11-20T11:01:44.885Z,17.35
2022-11-20T11:04:33.953Z,18.00
2022-11-20T11:07:10.673Z,17.13
2022-11-20T11:09:43.847Z,18.48
2022-11-20T11:12:11.358Z,14.63
2022-11-20T11:14:52.182Z,18.02
2022-11-20T11:17:28.206Z,11.27
2022-11-20T11:20:22.282Z,14.98
2022-11-20T11:22:51.848Z,14.18
2022-11-20T11:25:22.909Z,12.27
2022-11-20T11:27:51.053Z,9.60
2022-11-20T11:30:19.996Z,9.40
2022-11-20T11:32:46.645Z,9.43
2022-11-20T11:35:27.133Z,9.38
2022-11-20T11:38:03.193Z,7.05
2022-11-20T11:40:31.941Z,9.93
2022-11-20T11:43:02.034Z,10.10
2022-11-20T11:45:29.245Z,6.50
2022-11-20T11:47:59.379Z,11.25
2022-11-20T11:50:28.051Z,12.52
2022-11-20T11:53:18.826Z,7.57
2022-11-20T11:55:50.902Z,9.05
2022-11-20T11:58:46.189Z,12.50
2022-11-20T12:01:15.742Z,8.43
2022-11-20T12:03:43.949Z,10.88
2022-11-20T12:06:14.910Z,10.10
2022-11-20T12:09:13.137Z,11.45
2022-11-20T12:11:52.523Z,10.57
2022-11-20T12:14:38.605Z,9.50
2022-11-20T12:17:05.953Z,13.02
2022-11-20T12:19:35.447Z,6.90
2022-11-20T12:22:20.372Z,8.85
2022-11-20T12:25:09.850Z,13.98
2022-11-20T12:27:57.918Z,11.55
2022-11-20T12:30:25.732Z,8.93
2022-11-20T12:32:55.074Z,8.57
2022-11-20T12:35:24.683Z,9.85
2022-11-20T12:38:16.817Z,5.45
2022-11-20T12:41:05.639Z,13.48
2022-11-20T12:43:58.757Z,6.15
2022-11-20T12:46:48.929Z,11.68
2022-11-20T12:49:39.050Z,24.42
2022-11-20T12:52:40.472Z,29.40
2022-11-20T12:55:33.123Z,19.92
2022-11-20T12:58:28.884Z,26.75
2022-11-20T13:01:44.573Z,26.70
2022-11-20T13:04:27.122Z,13.98
2022-11-20T13:06:55.137Z,12.15
2022-11-20T13:09:23.556Z,8.00
2022-11-20T13:11:52.876Z,13.27
2022-11-20T13:14:33.413Z,7.43
2022-11-20T13:17:06.076Z,8.02
2022-11-20T13:19:34.148Z,11.18
2022-11-20T13:22:00.885Z,10.80
2022-11-20T13:24:31.212Z,11.73
2022-11-20T13:27:05.020Z,9.98
2022-11-20T13:29:33.005Z,9.15
2022-11-20T13:32:21.234Z,8.20
2022-11-20T13:37:40.246Z,8.27
2022-11-20T13:40:09.445Z,9.50
2022-11-20T13:42:44.818Z,5.88
2022-11-20T13:45:25.321Z,5.10
2022-11-20T13:47:53.837Z,11.52
2022-11-20T13:50:29.070Z,9.15
2022-11-20T13:52:55.517Z,11.43
2022-11-20T13:55:37.773Z,8.07
2022-11-20T13:58:39.275Z,12.00
2022-11-20T14:01:15.318Z,8.98
2022-11-20T14:04:04.986Z,6.95
2022-11-20T14:06:35.518Z,10.85
2022-11-20T14:09:02.210Z,9.10
2022-11-20T14:11:30.871Z,6.28
2022-11-20T14:14:11.906Z,8.60
2022-11-20T14:16:38.483Z,10.43
2022-11-20T14:19:26.777Z,7.45
2022-11-20T14:22:07.159Z,7.82
2022-11-20T14:24:33.941Z,7.63
2022-11-20T14:27:00.743Z,10.48
2022-11-20T14:29:35.893Z,7.63
2022-11-20T14:32:04.542Z,9.63
2022-11-20T14:34:36.583Z,8.75
2022-11-20T14:37:06.592Z,14.98
2022-11-20T14:39:37.273Z,15.05
2022-11-20T14:42:21.554Z,9.82
2022-11-20T14:44:53.572Z,10.13
2022-11-20T14:47:26.170Z,7.85
2022-11-20T14:49:54.320Z,11.82
2022-11-20T14:52:25.622Z,10.48
2022-11-20T14:54:57.331Z,11.93
2022-11-20T14:57:28.285Z,7.90
2022-11-20T15:00:24.627Z,45.05
2022-11-20T15:02:52.682Z,24.75
2022-11-20T15:05:25.875Z,53.33
2022-11-20T15:08:13.585Z,52.53
2022-11-20T15:10:46.089Z,29.90
2022-11-20T15:13:15.689Z,24.05
2022-11-20T15:15:47.645Z,14.35
2022-11-20T15:18:17.556Z,14.80
2022-11-20T15:20:44.529Z,11.57
2022-11-20T15:23:13.484Z,12.38
2022-11-20T15:25:41.674Z,32.40
2022-11-20T15:28:20.775Z,40.47
2022-11-20T15:30:49.537Z,66.75
2022-11-20T15:33:17.374Z,86.65
2022-11-20T15:35:45.182Z,35.10
2022-11-20T15:38:11.997Z,47.45
2022-11-20T15:40:38.492Z,26.95
2022-11-20T15:43:12.573Z,14.50
2022-11-20T15:45:46.859Z,12.77
2022-11-20T15:48:25.909Z,19.60
2022-11-20T15:51:04.205Z,19.17
2022-11-20T15:53:30.792Z,13.45
2022-11-20T15:55:57.364Z,15.30
2022-11-20T15:58:25.139Z,15.75
2022-11-20T16:00:51.869Z,18.63
2022-11-20T16:03:21.881Z,18.02
2022-11-20T16:05:48.433Z,14.93
2022-11-20T16:08:15.708Z,10.65
2022-11-20T16:10:46.089Z,15.70
2022-11-20T16:13:36.098Z,10.02
2022-11-20T16:16:06.238Z,15.60
2022-11-20T16:18:33.108Z,6.15
2022-11-20T16:20:59.833Z,12.10
2022-11-20T16:23:26.317Z,9.40
2022-11-20T16:25:52.995Z,13.30
2022-11-20T16:28:19.607Z,7.05
2022-11-20T16:30:46.829Z,12.65
2022-11-20T16:33:18.246Z,12.23
2022-11-20T16:35:44.957Z,21.95
2022-11-20T16:38:11.477Z,26.05
2022-11-20T16:40:37.948Z,41.25
2022-11-20T16:43:11.517Z,29.83
2022-11-20T16:45:45.540Z,28.73
2022-11-20T16:48:16.645Z,17.35
2022-11-20T16:50:48.400Z,14.38
2022-11-20T16:53:14.972Z,35.63
2022-11-20T16:55:41.608Z,35.10
2022-11-20T16:58:08.140Z,31.85
2022-11-20T17:00:39.972Z,11.50
2022-11-20T17:03:06.934Z,15.90
2022-11-20T17:05:34.822Z,15.73
2022-11-20T17:08:01.537Z,16.58
2022-11-20T17:10:28.121Z,21.75
2022-11-20T17:12:54.662Z,16.35
2022-11-20T17:15:21.222Z,15.88
2022-11-20T17:17:47.679Z,17.40
2022-11-20T17:20:14.196Z,14.75
2022-11-20T17:22:40.719Z,17.15
2022-11-20T17:25:07.583Z,8.43
2022-11-20T17:27:34.055Z,17.83
2022-11-20T17:30:00.612Z,16.83
2022-11-20T17:32:27.117Z,16.67
2022-11-20T17:34:53.680Z,18.08
2022-11-20T17:37:20.161Z,16.63
2022-11-20T17:39:46.878Z,16.35
2022-11-20T17:42:29.453Z,17.77
2022-11-20T17:44:58.674Z,18.27
2022-11-20T17:47:25.987Z,18.65
2022-11-20T17:49:53.601Z,17.88
2022-11-20T17:52:20.367Z,15.63
2022-11-20T17:54:46.874Z,17.25
2022-11-20T17:57:32.019Z,17.65
2022-11-20T17:59:58.545Z,14.95
2022-11-20T18:02:25.078Z,15.80
2022-11-20T18:04:51.589Z,20.45
2022-11-20T18:07:18.126Z,19.88
2022-11-20T18:09:44.855Z,18.20
2022-11-20T18:12:11.411Z,20.50
2022-11-20T18:14:37.952Z,18.58
2022-11-20T18:17:07.930Z,25.15
2022-11-20T18:19:44.688Z,17.20
2022-11-20T18:22:19.831Z,18.42
2022-11-20T18:24:46.398Z,18.83
2022-11-20T18:27:19.345Z,18.25
2022-11-20T18:29:48.965Z,19.67
2022-11-20T18:32:15.527Z,23.40
2022-11-20T18:34:42.037Z,20.98
2022-11-20T18:37:09.825Z,20.75
2022-11-20T18:39:36.852Z,21.30
2022-11-20T18:42:22.193Z,19.85
2022-11-20T18:44:51.401Z,18.38
2022-11-20T18:47:19.342Z,20.00
2022-11-20T18:49:51.257Z,22.15
2022-11-20T18:52:23.436Z,19.58
2022-11-20T18:54:50.837Z,21.73
2022-11-20T18:57:20.041Z,21.85
2022-11-20T18:59:46.804Z,21.65
2022-11-20T19:02:15.719Z,19.75
2022-11-20T19:04:42.536Z,19.88
2022-11-20T19:07:12.072Z,20.42
2022-11-20T19:09:43.706Z,20.90
2022-11-20T19:12:12.117Z,21.05
2022-11-20T19:14:38.834Z,20.77
2022-11-20T19:17:06.884Z,19.83
2022-11-20T19:19:36.596Z,21.60
2022-11-20T19:22:04.116Z,21.40
2022-11-20T19:24:30.610Z,23.63
2022-11-20T19:26:57.220Z,21.05
2022-11-20T19:29:25.041Z,22.15
2022-11-20T19:31:51.912Z,22.55
2022-11-20T19:34:18.441Z,24.02
2022-11-20T19:36:45.261Z,26.27
2022-11-20T19:39:12.421Z,25.95
2022-11-20T19:41:40.437Z,29.23
2022-11-20T19:44:14.956Z,26.80
2022-11-20T19:46:42.205Z,28.70
2022-11-20T19:49:11.421Z,27.17
2022-11-20T19:51:39.849Z,26.45
2022-11-20T19:54:06.606Z,24.70
2022-11-20T19:56:34.186Z,27.95
2022-11-20T19:59:01.760Z,31.27
2022-11-20T20:01:30.995Z,26.90
2022-11-20T20:04:02.543Z,26.20
2022-11-20T20:06:30.080Z,29.15
2022-11-20T20:08:59.417Z,28.50
2022-11-20T20:11:28.122Z,28.20
2022-11-20T20:13:56.053Z,31.55
2022-11-20T20:16:24.186Z,36.15
2022-11-20T20:18:58.253Z,32.30
2022-11-20T20:21:25.091Z,31.40
2022-11-20T20:23:54.136Z,33.67
2022-11-20T20:26:23.022Z,30.90
2022-11-20T20:28:50.072Z,33.50
2022-11-20T20:31:21.783Z,32.38
2022-11-20T20:33:48.671Z,34.85
2022-11-20T20:36:18.010Z,33.65
2022-11-20T20:38:58.261Z,29.23
2022-11-20T20:41:25.062Z,29.27
2022-11-20T20:44:10.928Z,27.23
2022-11-20T20:46:37.500Z,26.15
2022-11-20T20:49:04.165Z,31.48
2022-11-20T20:51:30.834Z,28.88
2022-11-20T20:53:57.415Z,26.75
2022-11-20T20:56:29.286Z,24.55
2022-11-20T20:58:55.839Z,29.25
2022-11-20T21:01:24.291Z,27.90
2022-11-20T21:03:50.900Z,27.63
2022-11-20T21:06:17.475Z,25.70
2022-11-20T21:08:44.795Z,30.20
2022-11-20T21:11:18.312Z,25.42
2022-11-20T21:13:46.635Z,22.85
2022-11-20T21:16:15.012Z,28.10
2022-11-20T21:18:41.608Z,26.52
2022-11-20T21:21:30.055Z,23.38
2022-11-20T21:23:56.876Z,18.23
2022-11-20T21:26:23.433Z,25.73
2022-11-20T21:28:50.154Z,24.70
2022-11-20T21:31:24.864Z,27.75
2022-11-20T21:33:52.786Z,22.52
2022-11-20T21:36:24.753Z,19.48
2022-11-20T21:38:53.899Z,15.82
2022-11-20T21:41:20.709Z,28.42
2022-11-20T21:44:09.174Z,21.92
2022-11-20T21:46:38.192Z,20.40
2022-11-20T21:49:05.268Z,14.23
2022-11-20T21:51:32.037Z,10.73
2022-11-20T21:53:59.035Z,22.55
2022-11-20T21:56:26.673Z,21.63
2022-11-20T21:58:54.839Z,21.92
2022-11-20T22:01:30.012Z,17.48
2022-11-20T22:03:59.167Z,26.65
2022-11-20T22:06:27.145Z,22.63
2022-11-20T22:08:53.712Z,19.38
2022-11-20T22:11:21.810Z,22.33
2022-11-20T22:14:07.322Z,13.05
2022-11-20T22:16:37.995Z,22.63
2022-11-20T22:19:05.875Z,21.15
2022-11-20T22:21:32.742Z,22.20
2022-11-20T22:23:59.653Z,16.73
2022-11-20T22:26:28.584Z,26.48
2022-11-20T22:28:57.200Z,21.17
2022-11-20T22:31:26.286Z,27.35
2022-11-20T22:33:53.485Z,23.77
2022-11-20T22:36:23.022Z,25.60
2022-11-20T22:38:49.965Z,26.80
2022-11-20T22:41:27.370Z,29.10
2022-11-20T22:43:58.400Z,29.33
2022-11-20T22:46:26.623Z,24.85
2022-11-20T22:48:55.052Z,16.27
2022-11-20T22:51:24.090Z,13.05
2022-11-20T22:53:51.535Z,22.98
2022-11-20T22:56:18.703Z,27.00
2022-11-20T22:58:47.710Z,18.73
2022-11-20T23:01:32.501Z,15.38
2022-11-20T23:04:01.269Z,22.77
2022-11-20T23:06:28.468Z,28.65
2022-11-20T23:08:55.562Z,29.58
2022-11-20T23:11:25.113Z,29.08
2022-11-20T23:13:59.454Z,21.50
2022-11-20T23:16:29.048Z,38.90
2022-11-20T23:18:58.115Z,35.38
2022-11-20T23:21:25.465Z,23.05
2022-11-20T23:23:54.167Z,30.65
2022-11-20T23:26:22.773Z,39.30
2022-11-20T23:28:49.462Z,25.92
2022-11-20T23:31:16.665Z,21.58
2022-11-20T23:33:45.721Z,33.85
2022-11-20T23:36:13.351Z,29.45
2022-11-20T23:38:40.542Z,39.42
2022-11-20T23:41:07.431Z,17.60
2022-11-20T23:43:34.467Z,38.92
2022-11-20T23:46:03.233Z,42.85
2022-11-20T23:48:31.967Z,33.25
2022-11-20T23:50:58.905Z,37.80
2022-11-20T23:53:26.111Z,38.03
2022-11-20T23:55:56.980Z,39.47
2022-11-20T23:58:29.797Z,36.22
